createdAt,value
2018-01-10T00:01:13.513Z,52.37
2018-01-10T00:03:41.984Z,49.37
2018-01-10T00:06:10.586Z,53.77
2018-01-10T00:08:39.056Z,54.20
2018-01-10T00:11:07.695Z,54.03
2018-01-10T00:13:36.389Z,49.03
2018-01-10T00:16:05.078Z,50.67
2018-01-10T00:18:33.757Z,51.70
2018-01-10T00:21:02.452Z,51.00
2018-01-10T00:23:30.915Z,57.30
2018-01-10T00:25:59.439Z,49.10
2018-01-10T00:28:28.139Z,52.83
2018-01-10T00:30:56.812Z,51.67
2018-01-10T00:33:25.314Z,53.40
2018-01-10T00:35:53.946Z,49.57
2018-01-10T00:38:22.603Z,52.20
2018-01-10T00:40:51.128Z,51.57
2018-01-10T00:43:19.776Z,51.30
2018-01-10T00:45:48.288Z,53.47
2018-01-10T00:48:16.747Z,51.10
2018-01-10T00:50:45.215Z,52.33
2018-01-10T00:53:13.722Z,53.60
2018-01-10T00:55:42.424Z,57.27
2018-01-10T00:58:10.940Z,57.30
2018-01-10T01:00:39.423Z,58.80
2018-01-10T01:03:08.041Z,50.77
2018-01-10T01:05:36.536Z,56.73
2018-01-10T01:08:05.227Z,55.17
2018-01-10T01:10:33.697Z,54.70
2018-01-10T01:13:02.581Z,55.50
2018-01-10T01:15:31.297Z,55.13
2018-01-10T01:17:59.944Z,56.33
2018-01-10T01:20:28.666Z,57.73
2018-01-10T01:22:57.903Z,63.07
2018-01-10T01:25:26.399Z,60.80
2018-01-10T01:27:55.190Z,68.37
2018-01-10T01:30:23.679Z,59.77
2018-01-10T01:32:52.129Z,59.03
2018-01-10T01:35:20.621Z,69.93
2018-01-10T01:37:49.256Z,61.00
2018-01-10T01:40:17.751Z,58.20
2018-01-10T01:42:46.374Z,63.70
2018-01-10T01:45:15.548Z,63.63
2018-01-10T01:47:44.164Z,62.23
2018-01-10T01:50:12.647Z,62.80
2018-01-10T01:52:41.136Z,65.43
2018-01-10T01:55:09.645Z,67.30
2018-01-10T01:57:38.308Z,67.00
2018-01-10T02:00:07.062Z,62.67
2018-01-10T02:02:35.734Z,75.67
2018-01-10T02:05:04.237Z,66.43
2018-01-10T02:07:32.731Z,70.43
2018-01-10T02:10:01.308Z,69.83
2018-01-10T02:12:30.044Z,67.33
2018-01-10T02:14:58.534Z,68.13
2018-01-10T02:17:27.285Z,73.77
2018-01-10T02:19:55.851Z,74.33
2018-01-10T02:22:24.464Z,69.50
2018-01-10T02:24:52.917Z,74.50
2018-01-10T02:27:21.521Z,69.43
2018-01-10T02:29:50.200Z,72.43
2018-01-10T02:32:18.781Z,71.30
2018-01-10T02:34:47.254Z,75.20
2018-01-10T02:37:16.560Z,90.70
2018-01-10T02:39:45.152Z,75.47
2018-01-10T02:42:22.524Z,69.27
2018-01-10T02:44:51.575Z,72.47
2018-01-10T02:47:20.140Z,73.63
2018-01-10T02:49:48.647Z,81.03
2018-01-10T02:52:17.133Z,79.90
2018-01-10T02:54:45.585Z,77.97
2018-01-10T02:57:14.157Z,74.57
2018-01-10T02:59:45.488Z,80.07
2018-01-10T03:02:14.023Z,79.23
2018-01-10T03:04:42.653Z,76.67
2018-01-10T03:07:11.411Z,82.07
2018-01-10T03:09:40.005Z,82.50
2018-01-10T03:12:08.535Z,80.57
2018-01-10T03:14:36.997Z,91.80
2018-01-10T03:17:05.538Z,89.50
2018-01-10T03:19:34.079Z,90.90
2018-01-10T03:22:02.661Z,90.00
2018-01-10T03:24:31.113Z,86.53
2018-01-10T03:26:59.635Z,89.97
2018-01-10T03:29:28.284Z,99.10
2018-01-10T03:31:56.836Z,92.30
2018-01-10T03:34:25.457Z,99.57
2018-01-10T03:36:53.982Z,94.23
2018-01-10T03:39:22.624Z,89.67
2018-01-10T03:41:51.356Z,97.47
2018-01-10T03:44:19.996Z,94.07
2018-01-10T03:46:48.479Z,98.53
2018-01-10T03:49:17.160Z,91.63
2018-01-10T03:51:45.862Z,101.00
2018-01-10T03:54:14.351Z,107.00
2018-01-10T03:56:42.858Z,111.47
2018-01-10T03:59:11.430Z,116.13
2018-01-10T04:01:40.024Z,90.97
2018-01-10T04:04:08.484Z,94.10
2018-01-10T04:06:36.967Z,96.17
2018-01-10T04:09:05.776Z,109.83
2018-01-10T04:11:34.296Z,112.87
2018-01-10T04:14:02.808Z,97.93
2018-01-10T04:16:31.336Z,116.80
2018-01-10T04:18:59.836Z,111.50
2018-01-10T04:21:28.366Z,104.43
2018-01-10T04:23:56.913Z,141.63
2018-01-10T04:26:25.412Z,101.33
2018-01-10T04:28:54.074Z,97.37
2018-01-10T04:31:23.381Z,121.33
2018-01-10T04:33:51.883Z,121.73
2018-01-10T04:36:20.393Z,149.27
2018-01-10T04:38:48.891Z,119.23
2018-01-10T04:41:17.428Z,119.83
2018-01-10T04:43:45.890Z,100.80
2018-01-10T04:46:14.374Z,128.87
2018-01-10T04:48:42.857Z,114.37
2018-01-10T04:51:11.376Z,145.53
2018-01-10T04:53:39.885Z,110.43
2018-01-10T04:56:08.505Z,103.20
2018-01-10T04:58:38.919Z,104.80
2018-01-10T05:04:02.712Z,120.83
2018-01-10T05:06:31.067Z,86.57
2018-01-10T05:08:59.342Z,106.63
2018-01-10T05:11:27.698Z,98.20
2018-01-10T05:13:56.048Z,107.23
2018-01-10T05:16:24.376Z,92.43
2018-01-10T05:18:52.727Z,112.40
2018-01-10T05:21:21.178Z,95.73
2018-01-10T05:23:49.743Z,114.23
2018-01-10T05:26:18.090Z,106.33
2018-01-10T05:28:46.541Z,113.80
2018-01-10T05:31:14.893Z,106.93
2018-01-10T05:33:43.201Z,104.10
2018-01-10T05:36:11.652Z,148.40
2018-01-10T05:38:39.958Z,112.60
2018-01-10T05:41:08.431Z,131.93
2018-01-10T05:43:36.755Z,140.37
2018-01-10T05:46:05.300Z,113.13
2018-01-10T05:48:33.572Z,100.93
2018-01-10T05:51:02.539Z,126.40
2018-01-10T05:53:30.824Z,105.67
2018-01-10T05:55:59.150Z,125.90
2018-01-10T05:58:27.444Z,142.13
2018-01-10T06:00:56.364Z,118.77
2018-01-10T06:03:25.054Z,113.77
2018-01-10T06:05:54.100Z,105.13
2018-01-10T06:08:27.088Z,113.40
2018-01-10T06:10:56.411Z,96.87
2018-01-10T06:13:26.826Z,98.23
2018-01-10T06:15:56.846Z,100.60
2018-01-10T06:18:26.559Z,112.23
2018-01-10T06:20:56.787Z,97.57
2018-01-10T06:23:27.125Z,97.87
2018-01-10T06:26:01.823Z,82.30
2018-01-10T06:28:32.526Z,86.90
2018-01-10T06:31:01.466Z,95.23
2018-01-10T06:33:33.435Z,115.00
2018-01-10T06:36:02.906Z,96.97
2018-01-10T06:38:31.165Z,105.10
2018-01-10T06:40:59.747Z,98.70
2018-01-10T06:43:28.168Z,97.57
2018-01-10T06:45:56.503Z,94.67
2018-01-10T06:48:24.865Z,117.27
2018-01-10T06:50:53.207Z,90.63
2018-01-10T06:53:21.467Z,77.97
2018-01-10T06:55:49.968Z,73.07
2018-01-10T06:58:18.427Z,65.73
2018-01-10T07:00:46.795Z,77.77
2018-01-10T07:03:15.093Z,79.07
2018-01-10T07:05:43.461Z,79.90
2018-01-10T07:08:11.735Z,108.00
2018-01-10T07:10:40.235Z,88.57
2018-01-10T07:13:08.524Z,83.50
2018-01-10T07:15:36.887Z,84.37
2018-01-10T07:18:05.179Z,85.93
2018-01-10T07:20:33.494Z,89.43
2018-01-10T07:23:01.772Z,72.70
2018-01-10T07:25:31.747Z,84.43
2018-01-10T07:28:00.091Z,69.83
2018-01-10T07:30:28.411Z,76.17
2018-01-10T07:32:56.738Z,85.87
2018-01-10T07:35:25.040Z,80.77
2018-01-10T07:37:53.928Z,88.00
2018-01-10T07:40:22.247Z,80.40
2018-01-10T07:42:50.887Z,87.63
2018-01-10T07:45:19.377Z,84.30
2018-01-10T07:47:48.527Z,77.03
2018-01-10T07:50:16.843Z,74.97
2018-01-10T07:52:45.246Z,69.40
2018-01-10T07:55:13.539Z,74.27
2018-01-10T07:57:41.960Z,84.43
2018-01-10T08:00:10.779Z,88.23
2018-01-10T08:02:40.040Z,77.17
2018-01-10T08:05:11.526Z,78.67
2018-01-10T08:07:39.803Z,69.90
2018-01-10T08:10:08.291Z,86.03
2018-01-10T08:12:36.800Z,67.43
2018-01-10T08:15:05.137Z,65.57
2018-01-10T08:17:33.551Z,63.70
2018-01-10T08:20:01.985Z,65.70
2018-01-10T08:22:30.393Z,66.03
2018-01-10T08:24:58.998Z,59.23
2018-01-10T08:27:27.393Z,82.77
2018-01-10T08:29:55.671Z,79.37
2018-01-10T08:32:24.206Z,62.37
2018-01-10T08:34:52.658Z,67.13
2018-01-10T08:37:21.914Z,70.63
2018-01-10T08:39:50.205Z,53.70
2018-01-10T08:42:18.505Z,60.70
2018-01-10T08:44:46.790Z,56.70
2018-01-10T08:47:15.297Z,64.67
2018-01-10T08:49:43.598Z,74.33
2018-01-10T08:52:11.910Z,62.13
2018-01-10T08:54:40.330Z,60.50
2018-01-10T08:57:08.802Z,61.13
2018-01-10T08:59:37.172Z,71.27
2018-01-10T09:02:05.497Z,71.47
2018-01-10T09:04:34.031Z,89.87
2018-01-10T09:07:02.322Z,71.30
2018-01-10T09:09:30.682Z,68.30
2018-01-10T09:11:59.043Z,71.83
2018-01-10T09:14:27.538Z,79.03
2018-01-10T09:16:55.863Z,61.87
2018-01-10T09:19:24.151Z,60.90
2018-01-10T09:21:52.598Z,86.27
2018-01-10T09:24:20.889Z,76.90
2018-01-10T09:26:49.350Z,65.13
2018-01-10T09:29:17.623Z,59.23
2018-01-10T09:31:46.095Z,64.27
2018-01-10T09:34:14.347Z,69.13
2018-01-10T09:36:42.662Z,89.87
2018-01-10T09:39:10.958Z,66.77
2018-01-10T09:41:39.430Z,73.67
2018-01-10T09:44:07.778Z,99.07
2018-01-10T09:46:36.102Z,73.53
2018-01-10T09:49:04.432Z,69.27
2018-01-10T09:51:32.791Z,101.60
2018-01-10T09:54:01.091Z,61.70
2018-01-10T09:56:35.748Z,74.47
2018-01-10T09:59:04.134Z,72.53
2018-01-10T10:01:32.437Z,67.37
2018-01-10T10:04:01.009Z,53.43
2018-01-10T10:06:29.468Z,64.40
2018-01-10T10:08:57.762Z,50.73
2018-01-10T10:11:26.071Z,54.47
2018-01-10T10:13:54.455Z,49.37
2018-01-10T10:16:22.846Z,49.00
2018-01-10T10:18:51.183Z,51.53
2018-01-10T10:21:19.529Z,60.37
2018-01-10T10:23:47.806Z,53.63
2018-01-10T10:26:16.115Z,55.27
2018-01-10T10:28:44.535Z,62.33
2018-01-10T10:31:12.846Z,50.80
2018-01-10T10:33:41.120Z,54.17
2018-01-10T10:36:09.412Z,50.93
2018-01-10T10:38:37.684Z,49.67
2018-01-10T10:41:05.984Z,43.50
2018-01-10T10:43:34.300Z,47.20
2018-01-10T10:46:02.709Z,44.70
2018-01-10T10:48:31.041Z,44.80
2018-01-10T10:50:59.657Z,42.80
2018-01-10T10:53:27.972Z,46.90
2018-01-10T10:55:56.499Z,46.43
2018-01-10T10:58:24.948Z,45.33
2018-01-10T11:00:53.802Z,44.30
2018-01-10T11:03:22.155Z,43.43
2018-01-10T11:05:50.610Z,49.40
2018-01-10T11:08:19.144Z,47.90
2018-01-10T11:10:47.513Z,45.57
2018-01-10T11:13:15.804Z,48.73
2018-01-10T11:15:44.174Z,48.00
2018-01-10T11:18:12.462Z,51.87
2018-01-10T11:20:41.046Z,51.20
2018-01-10T11:23:09.386Z,53.33
2018-01-10T11:25:37.815Z,56.00
2018-01-10T11:28:15.060Z,48.77
2018-01-10T11:30:43.780Z,47.93
2018-01-10T11:33:12.130Z,50.37
2018-01-10T11:35:42.123Z,52.97
2018-01-10T11:38:10.551Z,55.90
2018-01-10T11:40:39.119Z,52.73
2018-01-10T11:43:07.390Z,54.57
2018-01-10T11:45:35.784Z,58.03
2018-01-10T11:48:04.064Z,58.70
2018-01-10T11:50:32.516Z,53.27
2018-01-10T11:53:00.805Z,54.83
2018-01-10T11:55:29.134Z,49.47
2018-01-10T11:57:57.494Z,47.80
2018-01-10T12:00:26.166Z,54.13
2018-01-10T12:02:54.482Z,50.50
2018-01-10T12:05:22.774Z,52.43
2018-01-10T12:07:51.390Z,54.50
2018-01-10T12:10:19.775Z,52.03
2018-01-10T12:12:48.146Z,48.53
2018-01-10T12:15:18.003Z,55.30
2018-01-10T12:17:46.735Z,47.90
2018-01-10T12:20:15.254Z,47.40
2018-01-10T12:22:44.065Z,47.73
2018-01-10T12:25:12.663Z,46.50
2018-01-10T12:27:41.084Z,42.70
2018-01-10T12:30:09.640Z,46.33
2018-01-10T12:32:40.167Z,46.90
2018-01-10T12:35:08.652Z,44.10
2018-01-10T12:37:37.046Z,46.93
2018-01-10T12:40:05.572Z,44.03
2018-01-10T12:42:33.883Z,44.70
2018-01-10T12:45:02.344Z,43.07
2018-01-10T12:47:30.715Z,41.13
2018-01-10T12:49:59.014Z,47.03
2018-01-10T12:52:28.497Z,37.57
2018-01-10T12:54:56.972Z,41.13
2018-01-10T12:57:25.503Z,39.53
2018-01-10T12:59:56.640Z,42.53
2018-01-10T13:02:26.055Z,42.67
2018-01-10T13:04:55.867Z,45.13
2018-01-10T13:07:24.398Z,43.50
2018-01-10T13:09:52.979Z,46.90
2018-01-10T13:12:21.374Z,48.33
2018-01-10T13:14:49.694Z,49.63
2018-01-10T13:17:18.039Z,54.60
2018-01-10T13:19:46.726Z,54.80
2018-01-10T13:22:15.067Z,47.63
2018-01-10T13:24:50.295Z,49.23
2018-01-10T13:27:18.658Z,40.93
2018-01-10T13:29:47.026Z,45.20
2018-01-10T13:32:15.627Z,49.83
2018-01-10T13:34:43.887Z,45.60
2018-01-10T13:37:12.227Z,44.27
2018-01-10T13:39:40.562Z,45.20
2018-01-10T13:42:08.973Z,50.40
2018-01-10T13:44:37.290Z,54.80
2018-01-10T13:47:05.670Z,55.23
2018-01-10T13:49:33.959Z,56.87
2018-01-10T13:52:02.291Z,60.90
2018-01-10T13:54:30.597Z,58.17
2018-01-10T13:56:58.966Z,59.17
2018-01-10T13:59:27.398Z,67.70
2018-01-10T14:01:55.827Z,71.03
2018-01-10T14:04:24.114Z,65.50
2018-01-10T14:06:52.443Z,67.97
2018-01-10T14:09:20.859Z,71.13
2018-01-10T14:11:49.428Z,78.93
2018-01-10T14:14:18.614Z,82.20
2018-01-10T14:16:47.002Z,80.00
2018-01-10T14:19:15.275Z,79.67
2018-01-10T14:21:43.603Z,84.03
2018-01-10T14:24:11.924Z,80.17
2018-01-10T14:26:40.312Z,71.43
2018-01-10T14:29:08.580Z,69.73
2018-01-10T14:31:37.069Z,70.60
2018-01-10T14:34:05.356Z,76.30
2018-01-10T14:36:33.683Z,75.17
2018-01-10T14:39:02.078Z,76.63
2018-01-10T14:41:30.510Z,73.83
2018-01-10T14:43:58.795Z,68.63
2018-01-10T14:46:27.262Z,72.10
2018-01-10T14:48:55.528Z,79.40
2018-01-10T14:51:23.847Z,63.60
2018-01-10T14:53:52.151Z,71.83
2018-01-10T14:56:20.468Z,74.20
2018-01-10T14:58:48.781Z,69.33
2018-01-10T15:01:17.120Z,63.50
2018-01-10T15:03:45.424Z,76.90
2018-01-10T15:06:14.127Z,70.37
2018-01-10T15:08:42.515Z,68.53
2018-01-10T15:11:10.856Z,70.00
2018-01-10T15:13:39.291Z,85.23
2018-01-10T15:16:07.635Z,105.77
2018-01-10T15:18:35.922Z,93.70
2018-01-10T15:21:04.263Z,97.77
2018-01-10T15:23:32.572Z,108.97
2018-01-10T15:26:00.994Z,99.83
2018-01-10T15:28:29.315Z,84.23
2018-01-10T15:30:57.623Z,70.43
2018-01-10T15:33:25.946Z,84.70
2018-01-10T15:35:54.255Z,79.90
2018-01-10T15:38:22.571Z,86.77
2018-01-10T15:40:51.262Z,107.00
2018-01-10T15:43:19.554Z,90.77
2018-01-10T15:45:48.272Z,105.43
2018-01-10T15:48:17.009Z,92.77
2018-01-10T15:50:45.784Z,94.00
2018-01-10T15:53:14.234Z,93.97
2018-01-10T15:55:42.579Z,86.70
2018-01-10T15:58:11.159Z,105.33
2018-01-10T16:00:40.284Z,89.63
2018-01-10T16:03:09.174Z,96.17
2018-01-10T16:05:37.552Z,90.03
2018-01-10T16:08:05.875Z,88.03
2018-01-10T16:10:34.230Z,103.23
2018-01-10T16:13:02.589Z,86.80
2018-01-10T16:15:30.907Z,78.53
2018-01-10T16:17:59.235Z,86.60
2018-01-10T16:20:27.558Z,96.03
2018-01-10T16:22:56.504Z,121.83
2018-01-10T16:25:25.057Z,131.53
2018-01-10T16:27:53.412Z,103.27
2018-01-10T16:30:21.717Z,125.30
2018-01-10T16:32:50.098Z,123.93
2018-01-10T16:35:18.459Z,104.77
2018-01-10T16:37:46.757Z,104.10
2018-01-10T16:40:15.067Z,96.10
2018-01-10T16:42:43.379Z,95.37
2018-01-10T16:45:11.707Z,87.93
2018-01-10T16:47:40.018Z,95.70
2018-01-10T16:50:08.490Z,101.40
2018-01-10T16:52:36.800Z,83.80
2018-01-10T16:55:05.541Z,90.80
2018-01-10T16:57:33.944Z,77.73
2018-01-10T17:00:03.568Z,93.77
2018-01-10T17:02:34.226Z,76.70
2018-01-10T17:05:03.971Z,77.97
2018-01-10T17:07:32.331Z,70.63
2018-01-10T17:10:00.687Z,81.00
2018-01-10T17:12:29.030Z,76.00
2018-01-10T17:14:58.326Z,93.70
2018-01-10T17:17:26.695Z,97.40
2018-01-10T17:19:55.091Z,121.63
2018-01-10T17:22:23.400Z,86.03
2018-01-10T17:24:51.708Z,90.77
2018-01-10T17:27:20.070Z,71.33
2018-01-10T17:29:48.466Z,105.23
2018-01-10T17:32:16.810Z,86.37
2018-01-10T17:34:45.088Z,70.93
2018-01-10T17:37:13.388Z,74.70
2018-01-10T17:39:41.679Z,73.47
2018-01-10T17:42:10.020Z,54.77
2018-01-10T17:44:38.460Z,74.17
2018-01-10T17:47:06.779Z,50.73
2018-01-10T17:49:35.199Z,74.53
2018-01-10T17:52:03.720Z,89.03
2018-01-10T17:54:32.035Z,84.50
2018-01-10T17:57:00.372Z,64.97
2018-01-10T17:59:28.676Z,50.70
2018-01-10T18:01:57.017Z,56.47
2018-01-10T18:04:25.362Z,54.27
2018-01-10T18:06:53.701Z,50.53
2018-01-10T18:09:22.022Z,58.23
2018-01-10T18:11:50.373Z,73.43
2018-01-10T18:14:18.807Z,59.20
2018-01-10T18:16:47.258Z,90.77
2018-01-10T18:19:15.899Z,52.53
2018-01-10T18:21:44.223Z,70.80
2018-01-10T18:24:12.511Z,67.10
2018-01-10T18:26:40.836Z,65.10
2018-01-10T18:29:09.240Z,82.17
2018-01-10T18:31:37.576Z,87.93
2018-01-10T18:34:06.021Z,82.80
2018-01-10T18:36:34.610Z,104.10
2018-01-10T18:39:02.876Z,84.70
2018-01-10T18:41:31.172Z,79.87
2018-01-10T18:43:59.480Z,80.57
2018-01-10T18:46:27.800Z,79.70
2018-01-10T18:48:56.227Z,96.33
2018-01-10T18:51:24.582Z,98.23
2018-01-10T18:53:52.862Z,129.30
2018-01-10T18:56:21.204Z,111.20
2018-01-10T18:58:56.062Z,100.97
2018-01-10T19:01:24.468Z,90.40
2018-01-10T19:03:52.723Z,84.00
2018-01-10T19:06:21.204Z,88.97
2018-01-10T19:08:49.499Z,111.87
2018-01-10T19:11:24.689Z,68.43
2018-01-10T19:13:53.058Z,88.53
2018-01-10T19:16:21.462Z,90.17
2018-01-10T19:18:49.936Z,101.63
2018-01-10T19:21:18.414Z,84.40
2018-01-10T19:23:46.908Z,130.20
2018-01-10T19:26:15.235Z,108.87
2018-01-10T19:28:43.600Z,95.03
2018-01-10T19:31:12.131Z,91.13
2018-01-10T19:33:40.434Z,87.60
2018-01-10T19:36:08.729Z,79.60
2018-01-10T19:38:37.156Z,89.40
2018-01-10T19:41:05.524Z,87.87
2018-01-10T19:43:34.138Z,75.30
2018-01-10T19:46:03.064Z,86.90
2018-01-10T19:48:31.363Z,87.40
2018-01-10T19:50:59.799Z,80.03
2018-01-10T19:53:28.080Z,81.17
2018-01-10T19:55:56.411Z,102.67
2018-01-10T19:58:26.390Z,122.23
2018-01-10T20:00:54.923Z,90.17
2018-01-10T20:03:24.471Z,103.10
2018-01-10T20:05:52.837Z,108.13
2018-01-10T20:08:21.125Z,83.50
2018-01-10T20:10:49.453Z,85.30
2018-01-10T20:13:17.942Z,79.57
2018-01-10T20:15:51.406Z,82.33
2018-01-10T20:18:25.152Z,84.13
2018-01-10T20:20:52.526Z,76.00
2018-01-10T20:23:19.864Z,67.10
2018-01-10T20:25:47.262Z,77.73
2018-01-10T20:28:14.618Z,104.17
2018-01-10T20:30:42.116Z,108.33
2018-01-10T20:33:09.514Z,145.00
2018-01-10T20:35:37.944Z,102.13
2018-01-10T20:38:06.268Z,92.03
2018-01-10T20:40:34.642Z,107.77
2018-01-10T20:43:02.997Z,86.63
2018-01-10T20:45:31.392Z,86.47
2018-01-10T20:47:59.941Z,157.37
2018-01-10T20:50:28.261Z,135.67
2018-01-10T20:52:56.539Z,107.73
2018-01-10T20:55:24.847Z,93.50
2018-01-10T20:57:53.148Z,94.83
2018-01-10T21:00:21.802Z,72.60
2018-01-10T21:02:50.110Z,99.73
2018-01-10T21:05:18.452Z,82.80
2018-01-10T21:07:46.876Z,88.53
2018-01-10T21:10:15.240Z,74.90
2018-01-10T21:12:50.347Z,82.83
2018-01-10T21:15:18.879Z,102.87
2018-01-10T21:17:47.157Z,71.70
2018-01-10T21:20:15.671Z,79.53
2018-01-10T21:22:43.951Z,88.47
2018-01-10T21:25:12.287Z,68.87
2018-01-10T21:27:40.582Z,82.20
2018-01-10T21:30:12.751Z,84.50
2018-01-10T21:32:42.275Z,100.77
2018-01-10T21:35:11.215Z,62.00
2018-01-10T21:37:39.532Z,97.10
2018-01-10T21:40:08.045Z,73.67
2018-01-10T21:42:36.368Z,97.73
2018-01-10T21:45:05.143Z,95.27
2018-01-10T21:47:33.457Z,79.50
2018-01-10T21:50:01.867Z,92.47
2018-01-10T21:52:30.278Z,95.20
2018-01-10T21:54:58.794Z,88.90
2018-01-10T21:57:27.612Z,91.37
2018-01-10T21:59:57.288Z,93.77
2018-01-10T22:02:26.666Z,75.93
2018-01-10T22:04:54.946Z,83.10
2018-01-10T22:07:23.323Z,71.17
2018-01-10T22:09:52.520Z,85.80
2018-01-10T22:12:21.706Z,120.87
2018-01-10T22:14:57.480Z,89.47
2018-01-10T22:17:25.860Z,131.20
2018-01-10T22:19:54.156Z,87.13
2018-01-10T22:22:22.690Z,70.30
2018-01-10T22:24:51.033Z,80.37
2018-01-10T22:27:20.233Z,87.50
2018-01-10T22:29:49.249Z,60.83
2018-01-10T22:32:17.793Z,90.73
2018-01-10T22:34:46.280Z,125.67
2018-01-10T22:37:14.659Z,93.37
2018-01-10T22:39:43.696Z,69.67
2018-01-10T22:42:12.037Z,80.63
2018-01-10T22:44:40.888Z,123.93
2018-01-10T22:47:09.419Z,139.73
2018-01-10T22:49:38.051Z,132.43
2018-01-10T22:52:06.658Z,91.17
2018-01-10T22:54:35.071Z,112.13
2018-01-10T22:57:03.773Z,128.07
2018-01-10T22:59:32.167Z,120.00
2018-01-10T23:02:00.580Z,127.37
2018-01-10T23:04:29.596Z,104.20
2018-01-10T23:06:58.167Z,99.57
2018-01-10T23:09:26.607Z,122.27
2018-01-10T23:11:55.337Z,108.73
2018-01-10T23:14:23.654Z,94.07
2018-01-10T23:16:51.987Z,88.50
2018-01-10T23:19:20.339Z,95.37
2018-01-10T23:21:48.680Z,98.60
2018-01-10T23:24:19.024Z,89.70
2018-01-10T23:26:47.358Z,114.80
2018-01-10T23:29:15.682Z,95.37
2018-01-10T23:31:44.034Z,103.10
2018-01-10T23:34:12.334Z,95.13
2018-01-10T23:36:40.866Z,95.33
2018-01-10T23:39:09.241Z,98.60
2018-01-10T23:41:37.726Z,103.70
2018-01-10T23:44:06.282Z,82.47
2018-01-10T23:46:34.682Z,65.97
2018-01-10T23:49:02.987Z,81.87
2018-01-10T23:51:31.306Z,74.23
2018-01-10T23:53:59.605Z,68.70
2018-01-10T23:56:27.993Z,93.60
2018-01-10T23:58:56.268Z,86.37
